sensor_id;sensor_type;location;lat;lon;timestamp;pressure;altitude;pressure_sealevel;temperature;humidity
68994;BME280;56054;50.968;5.816;2023-02-04T00:01:52;102438.81;;;7.25;100.00
68994;BME280;56054;50.968;5.816;2023-02-04T00:05:02;102443.34;;;7.19;100.00
68994;BME280;56054;50.968;5.816;2023-02-04T00:08:27;102446.53;;;7.17;100.00
68994;BME280;56054;50.968;5.816;2023-02-04T00:11:37;102438.94;;;7.18;100.00
68994;BME280;56054;50.968;5.816;2023-02-04T00:14:47;102435.75;;;7.12;100.00
68994;BME280;56054;50.968;5.816;2023-02-04T00:18:28;102443.16;;;7.09;100.00
68994;BME280;56054;50.968;5.816;2023-02-04T00:21:35;102440.75;;;7.11;100.00
68994;BME280;56054;50.968;5.816;2023-02-04T00:25:12;102449.72;;;7.14;100.00
68994;BME280;56054;50.968;5.816;2023-02-04T00:28:31;102449.19;;;7.01;100.00
68994;BME280;56054;50.968;5.816;2023-02-04T00:31:38;102444.81;;;7.00;100.00
68994;BME280;56054;50.968;5.816;2023-02-04T00:34:47;102447.59;;;7.10;100.00
68994;BME280;56054;50.968;5.816;2023-02-04T00:38:12;102452.41;;;7.07;100.00
68994;BME280;56054;50.968;5.816;2023-02-04T00:41:20;102445.84;;;7.02;100.00
68994;BME280;56054;50.968;5.816;2023-02-04T00:44:42;102449.78;;;6.98;100.00
68994;BME280;56054;50.968;5.816;2023-02-04T00:48:14;102443.66;;;6.89;100.00
68994;BME280;56054;50.968;5.816;2023-02-04T00:55:19;102446.56;;;6.92;100.00
68994;BME280;56054;50.968;5.816;2023-02-04T00:58:27;102447.50;;;6.93;100.00
68994;BME280;56054;50.968;5.816;2023-02-04T01:01:37;102448.22;;;6.92;100.00
68994;BME280;56054;50.968;5.816;2023-02-04T01:04:58;102441.06;;;6.89;100.00
68994;BME280;56054;50.968;5.816;2023-02-04T01:08:07;102449.63;;;6.97;100.00
68994;BME280;56054;50.968;5.816;2023-02-04T01:11:18;102454.47;;;6.94;100.00
68994;BME280;56054;50.968;5.816;2023-02-04T01:14:39;102449.00;;;6.91;100.00
68994;BME280;56054;50.968;5.816;2023-02-04T01:18:11;102458.47;;;6.99;100.00
68994;BME280;56054;50.968;5.816;2023-02-04T01:21:44;102458.16;;;6.96;100.00
68994;BME280;56054;50.968;5.816;2023-02-04T01:24:51;102460.88;;;6.97;100.00
68994;BME280;56054;50.968;5.816;2023-02-04T01:28:16;102461.81;;;6.98;100.00
68994;BME280;56054;50.968;5.816;2023-02-04T01:31:25;102454.53;;;7.02;100.00
68994;BME280;56054;50.968;5.816;2023-02-04T01:34:32;102455.28;;;7.01;100.00
68994;BME280;56054;50.968;5.816;2023-02-04T01:37:42;102447.81;;;6.96;100.00
68994;BME280;56054;50.968;5.816;2023-02-04T01:40:49;102451.47;;;6.98;100.00
68994;BME280;56054;50.968;5.816;2023-02-04T01:43:57;102449.91;;;6.91;100.00
68994;BME280;56054;50.968;5.816;2023-02-04T01:47:05;102460.63;;;7.03;100.00
68994;BME280;56054;50.968;5.816;2023-02-04T01:50:16;102456.94;;;7.01;100.00
68994;BME280;56054;50.968;5.816;2023-02-04T01:53:25;102462.44;;;7.04;100.00
68994;BME280;56054;50.968;5.816;2023-02-04T01:56:39;102472.53;;;7.10;100.00
68994;BME280;56054;50.968;5.816;2023-02-04T01:59:56;102474.28;;;7.02;100.00
68994;BME280;56054;50.968;5.816;2023-02-04T02:03:24;102472.47;;;7.01;100.00
68994;BME280;56054;50.968;5.816;2023-02-04T02:06:31;102482.97;;;7.02;100.00
68994;BME280;56054;50.968;5.816;2023-02-04T02:09:38;102482.22;;;7.03;100.00
68994;BME280;56054;50.968;5.816;2023-02-04T02:12:47;102485.28;;;7.08;100.00
68994;BME280;56054;50.968;5.816;2023-02-04T02:15:58;102482.03;;;7.02;100.00
68994;BME280;56054;50.968;5.816;2023-02-04T02:19:06;102479.44;;;7.02;100.00
68994;BME280;56054;50.968;5.816;2023-02-04T02:22:29;102482.53;;;7.06;100.00
68994;BME280;56054;50.968;5.816;2023-02-04T02:25:39;102481.94;;;7.09;100.00
68994;BME280;56054;50.968;5.816;2023-02-04T02:28:48;102487.69;;;7.06;100.00
68994;BME280;56054;50.968;5.816;2023-02-04T02:31:57;102488.94;;;7.10;100.00
68994;BME280;56054;50.968;5.816;2023-02-04T02:35:31;102487.69;;;7.06;100.00
68994;BME280;56054;50.968;5.816;2023-02-04T02:38:38;102488.28;;;7.04;100.00
68994;BME280;56054;50.968;5.816;2023-02-04T02:41:47;102487.38;;;7.03;100.00
68994;BME280;56054;50.968;5.816;2023-02-04T02:44:54;102489.53;;;7.07;100.00
68994;BME280;56054;50.968;5.816;2023-02-04T02:48:01;102487.38;;;7.03;100.00
68994;BME280;56054;50.968;5.816;2023-02-04T05:43:15;102607.38;;;6.58;100.00
68994;BME280;56054;50.968;5.816;2023-02-04T05:46:22;102604.88;;;6.51;100.00
68994;BME280;56054;50.968;5.816;2023-02-04T05:49:29;102607.66;;;6.52;100.00
68994;BME280;56054;50.968;5.816;2023-02-04T05:52:36;102605.81;;;6.51;100.00
68994;BME280;56054;50.968;5.816;2023-02-04T05:55:44;102600.66;;;6.51;100.00
68994;BME280;56054;50.968;5.816;2023-02-04T05:58:51;102605.25;;;6.54;100.00
68994;BME280;56054;50.968;5.816;2023-02-04T06:02:10;102613.78;;;6.46;100.00
68994;BME280;56054;50.968;5.816;2023-02-04T06:05:17;102624.16;;;6.61;100.00
68994;BME280;56054;50.968;5.816;2023-02-04T06:08:24;102613.41;;;6.50;100.00
68994;BME280;56054;50.968;5.816;2023-02-04T06:11:31;102617.88;;;6.43;100.00
68994;BME280;56054;50.968;5.816;2023-02-04T06:14:38;102622.97;;;6.51;100.00
68994;BME280;56054;50.968;5.816;2023-02-04T06:17:45;102629.72;;;6.41;100.00
68994;BME280;56054;50.968;5.816;2023-02-04T06:20:52;102634.06;;;6.50;100.00
68994;BME280;56054;50.968;5.816;2023-02-04T06:23:59;102638.31;;;6.49;100.00
68994;BME280;56054;50.968;5.816;2023-02-04T06:27:06;102639.81;;;6.47;100.00
68994;BME280;56054;50.968;5.816;2023-02-04T06:30:14;102648.88;;;6.43;100.00
68994;BME280;56054;50.968;5.816;2023-02-04T06:33:21;102656.97;;;6.47;100.00
68994;BME280;56054;50.968;5.816;2023-02-04T06:36:37;102658.06;;;6.49;100.00
68994;BME280;56054;50.968;5.816;2023-02-04T06:39:44;102656.22;;;6.48;100.00
68994;BME280;56054;50.968;5.816;2023-02-04T06:42:51;102652.31;;;6.51;100.00
68994;BME280;56054;50.968;5.816;2023-02-04T06:46:09;102652.53;;;6.30;100.00
68994;BME280;56054;50.968;5.816;2023-02-04T06:49:21;102664.53;;;6.29;100.00
68994;BME280;56054;50.968;5.816;2023-02-04T06:52:38;102674.72;;;6.20;100.00
68994;BME280;56054;50.968;5.816;2023-02-04T06:56:16;102673.81;;;6.20;100.00
68994;BME280;56054;50.968;5.816;2023-02-04T06:59:23;102673.25;;;6.22;100.00
68994;BME280;56054;50.968;5.816;2023-02-04T07:02:36;102679.00;;;6.36;100.00
68994;BME280;56054;50.968;5.816;2023-02-04T07:05:52;102680.34;;;6.32;100.00
68994;BME280;56054;50.968;5.816;2023-02-04T07:08:59;102682.50;;;6.36;100.00
68994;BME280;56054;50.968;5.816;2023-02-04T07:12:41;102685.19;;;6.45;100.00
68994;BME280;56054;50.968;5.816;2023-02-04T07:15:48;102691.34;;;6.38;100.00
68994;BME280;56054;50.968;5.816;2023-02-04T07:18:56;102694.03;;;6.47;100.00
68994;BME280;56054;50.968;5.816;2023-02-04T07:22:03;102693.47;;;6.50;100.00
68994;BME280;56054;50.968;5.816;2023-02-04T07:25:11;102705.28;;;6.48;100.00
68994;BME280;56054;50.968;5.816;2023-02-04T07:28:22;102710.25;;;6.46;100.00
68994;BME280;56054;50.968;5.816;2023-02-04T07:31:30;102706.56;;;6.51;100.00
68994;BME280;56054;50.968;5.816;2023-02-04T07:34:37;102705.78;;;6.52;100.00
68994;BME280;56054;50.968;5.816;2023-02-04T07:37:44;102714.63;;;6.54;100.00
68994;BME280;56054;50.968;5.816;2023-02-04T07:40:56;102722.97;;;6.52;100.00
68994;BME280;56054;50.968;5.816;2023-02-04T07:44:28;102710.97;;;6.52;100.00
68994;BME280;56054;50.968;5.816;2023-02-04T07:47:35;102709.81;;;6.57;100.00
68994;BME280;56054;50.968;5.816;2023-02-04T07:50:45;102720.47;;;6.60;100.00
68994;BME280;56054;50.968;5.816;2023-02-04T07:53:52;102726.00;;;6.63;100.00
68994;BME280;56054;50.968;5.816;2023-02-04T07:56:59;102718.88;;;6.54;100.00
68994;BME280;56054;50.968;5.816;2023-02-04T08:00:41;102727.63;;;6.63;100.00
68994;BME280;56054;50.968;5.816;2023-02-04T08:03:51;102737.56;;;6.67;100.00
68994;BME280;56054;50.968;5.816;2023-02-04T08:06:58;102728.41;;;6.62;100.00
68994;BME280;56054;50.968;5.816;2023-02-04T08:10:11;102732.97;;;6.64;100.00
68994;BME280;56054;50.968;5.816;2023-02-04T08:13:18;102744.66;;;6.61;100.00
68994;BME280;56054;50.968;5.816;2023-02-04T08:16:31;102746.75;;;6.72;100.00
68994;BME280;56054;50.968;5.816;2023-02-04T08:19:38;102751.25;;;6.66;100.00
68994;BME280;56054;50.968;5.816;2023-02-04T08:22:58;102757.72;;;6.62;100.00
68994;BME280;56054;50.968;5.816;2023-02-04T08:26:10;102756.75;;;6.69;100.00
68994;BME280;56054;50.968;5.816;2023-02-04T08:29:17;102760.44;;;6.71;100.00
68994;BME280;56054;50.968;5.816;2023-02-04T08:32:26;102761.34;;;6.72;100.00
68994;BME280;56054;50.968;5.816;2023-02-04T08:35:33;102759.41;;;6.62;100.00
68994;BME280;56054;50.968;5.816;2023-02-04T08:38:41;102763.00;;;6.71;100.00
68994;BME280;56054;50.968;5.816;2023-02-04T08:41:52;102760.75;;;6.74;100.00
68994;BME280;56054;50.968;5.816;2023-02-04T08:45:01;102775.75;;;6.70;100.00
68994;BME280;56054;50.968;5.816;2023-02-04T08:48:08;102763.66;;;6.77;100.00
68994;BME280;56054;50.968;5.816;2023-02-04T08:51:27;102778.25;;;6.77;100.00
68994;BME280;56054;50.968;5.816;2023-02-04T08:54:36;102775.09;;;6.79;100.00
68994;BME280;56054;50.968;5.816;2023-02-04T08:57:43;102770.38;;;6.91;100.00
68994;BME280;56054;50.968;5.816;2023-02-04T09:00:55;102789.06;;;6.89;100.00
68994;BME280;56054;50.968;5.816;2023-02-04T09:04:11;102782.66;;;6.78;100.00
68994;BME280;56054;50.968;5.816;2023-02-04T09:07:27;102785.56;;;6.88;100.00
68994;BME280;56054;50.968;5.816;2023-02-04T09:10:34;102774.84;;;6.85;100.00
68994;BME280;56054;50.968;5.816;2023-02-04T09:13:41;102788.88;;;6.87;100.00
68994;BME280;56054;50.968;5.816;2023-02-04T09:16:50;102783.13;;;6.90;100.00
68994;BME280;56054;50.968;5.816;2023-02-04T09:20:03;102786.53;;;6.97;100.00
68994;BME280;56054;50.968;5.816;2023-02-04T09:23:16;102795.97;;;6.97;100.00
68994;BME280;56054;50.968;5.816;2023-02-04T09:26:27;102799.06;;;7.01;100.00
68994;BME280;56054;50.968;5.816;2023-02-04T09:29:41;102794.81;;;7.02;100.00
68994;BME280;56054;50.968;5.816;2023-02-04T09:32:57;102794.59;;;7.07;100.00
68994;BME280;56054;50.968;5.816;2023-02-04T09:36:05;102790.41;;;7.17;100.00
68994;BME280;56054;50.968;5.816;2023-02-04T09:39:21;102788.19;;;7.20;100.00
68994;BME280;56054;50.968;5.816;2023-02-04T09:42:28;102779.59;;;7.12;100.00
68994;BME280;56054;50.968;5.816;2023-02-04T09:46:02;102785.47;;;7.11;100.00
68994;BME280;56054;50.968;5.816;2023-02-04T09:49:09;102783.81;;;7.12;100.00
68994;BME280;56054;50.968;5.816;2023-02-04T09:52:17;102777.00;;;7.12;100.00
68994;BME280;56054;50.968;5.816;2023-02-04T09:55:34;102788.31;;;7.21;100.00
68994;BME280;56054;50.968;5.816;2023-02-04T10:03:14;102805.94;;;7.33;100.00
68994;BME280;56054;50.968;5.816;2023-02-04T10:06:22;102810.34;;;7.34;100.00
68994;BME280;56054;50.968;5.816;2023-02-04T10:09:42;102811.28;;;7.34;100.00
68994;BME280;56054;50.968;5.816;2023-02-04T10:13:00;102819.53;;;7.39;100.00
68994;BME280;56054;50.968;5.816;2023-02-04T10:16:36;102812.38;;;7.52;100.00
68994;BME280;56054;50.968;5.816;2023-02-04T10:20:13;102810.09;;;7.55;100.00
68994;BME280;56054;50.968;5.816;2023-02-04T10:24:12;102830.91;;;7.64;100.00
68994;BME280;56054;50.968;5.816;2023-02-04T10:27:21;102823.13;;;7.64;100.00
68994;BME280;56054;50.968;5.816;2023-02-04T10:31:03;102825.94;;;7.58;100.00
68994;BME280;56054;50.968;5.816;2023-02-04T10:34:40;102824.94;;;7.65;100.00
68994;BME280;56054;50.968;5.816;2023-02-04T10:38:11;102829.22;;;7.64;100.00
68994;BME280;56054;50.968;5.816;2023-02-04T10:41:18;102829.31;;;7.73;100.00
68994;BME280;56054;50.968;5.816;2023-02-04T10:44:30;102835.22;;;7.72;100.00
68994;BME280;56054;50.968;5.816;2023-02-04T10:48:21;102825.38;;;7.77;100.00
68994;BME280;56054;50.968;5.816;2023-02-04T10:51:28;102828.50;;;7.90;100.00
68994;BME280;56054;50.968;5.816;2023-02-04T10:54:41;102824.25;;;7.90;100.00
68994;BME280;56054;50.968;5.816;2023-02-04T10:57:51;102821.09;;;7.93;100.00
68994;BME280;56054;50.968;5.816;2023-02-04T11:01:13;102823.59;;;7.84;100.00
68994;BME280;56054;50.968;5.816;2023-02-04T11:04:21;102822.50;;;7.98;100.00
68994;BME280;56054;50.968;5.816;2023-02-04T11:07:28;102821.47;;;8.05;100.00
68994;BME280;56054;50.968;5.816;2023-02-04T11:11:16;102823.59;;;8.00;100.00
68994;BME280;56054;50.968;5.816;2023-02-04T11:14:27;102831.88;;;8.13;100.00
68994;BME280;56054;50.968;5.816;2023-02-04T11:17:41;102827.88;;;8.24;100.00
68994;BME280;56054;50.968;5.816;2023-02-04T11:20:49;102827.47;;;8.12;100.00
68994;BME280;56054;50.968;5.816;2023-02-04T11:24:25;102835.25;;;8.12;100.00
68994;BME280;56054;50.968;5.816;2023-02-04T11:27:38;102836.38;;;8.23;100.00
68994;BME280;56054;50.968;5.816;2023-02-04T11:30:58;102839.88;;;8.24;100.00
68994;BME280;56054;50.968;5.816;2023-02-04T11:37:17;102838.97;;;8.23;100.00
68994;BME280;56054;50.968;5.816;2023-02-04T11:40:33;102832.00;;;8.31;100.00
68994;BME280;56054;50.968;5.816;2023-02-04T11:43:40;102820.19;;;8.17;100.00
68994;BME280;56054;50.968;5.816;2023-02-04T11:46:54;102828.69;;;8.16;100.00
68994;BME280;56054;50.968;5.816;2023-02-04T11:50:15;102829.03;;;8.19;100.00
68994;BME280;56054;50.968;5.816;2023-02-04T11:53:33;102828.56;;;8.14;100.00
68994;BME280;56054;50.968;5.816;2023-02-04T11:56:47;102830.59;;;8.26;100.00
68994;BME280;56054;50.968;5.816;2023-02-04T12:00:02;102827.91;;;8.33;100.00
68994;BME280;56054;50.968;5.816;2023-02-04T12:03:44;102830.97;;;8.38;100.00
68994;BME280;56054;50.968;5.816;2023-02-04T12:07:26;102828.50;;;8.46;100.00
68994;BME280;56054;50.968;5.816;2023-02-04T12:11:03;102836.84;;;8.44;100.00
68994;BME280;56054;50.968;5.816;2023-02-04T12:18:18;102821.94;;;8.50;100.00
68994;BME280;56054;50.968;5.816;2023-02-04T12:21:30;102817.44;;;8.65;100.00
68994;BME280;56054;50.968;5.816;2023-02-04T12:24:42;102816.34;;;8.63;100.00
68994;BME280;56054;50.968;5.816;2023-02-04T12:27:50;102819.59;;;8.69;100.00
68994;BME280;56054;50.968;5.816;2023-02-04T12:30:57;102821.72;;;8.73;100.00
68994;BME280;56054;50.968;5.816;2023-02-04T12:34:04;102816.69;;;8.66;100.00
68994;BME280;56054;50.968;5.816;2023-02-04T12:37:23;102817.06;;;8.86;100.00
68994;BME280;56054;50.968;5.816;2023-02-04T12:40:30;102819.91;;;8.72;100.00
68994;BME280;56054;50.968;5.816;2023-02-04T12:43:41;102822.69;;;8.82;100.00
68994;BME280;56054;50.968;5.816;2023-02-04T12:46:51;102830.94;;;8.78;100.00
68994;BME280;56054;50.968;5.816;2023-02-04T12:49:58;102825.25;;;8.73;100.00
68994;BME280;56054;50.968;5.816;2023-02-04T12:53:06;102829.72;;;8.83;100.00
68994;BME280;56054;50.968;5.816;2023-02-04T12:56:14;102830.03;;;8.86;100.00
68994;BME280;56054;50.968;5.816;2023-02-04T12:59:21;102831.41;;;8.91;100.00
68994;BME280;56054;50.968;5.816;2023-02-04T13:02:28;102828.53;;;8.88;100.00
68994;BME280;56054;50.968;5.816;2023-02-04T13:05:36;102837.69;;;8.93;100.00
68994;BME280;56054;50.968;5.816;2023-02-04T13:09:02;102827.00;;;8.90;100.00
68994;BME280;56054;50.968;5.816;2023-02-04T13:12:09;102832.19;;;8.90;100.00
68994;BME280;56054;50.968;5.816;2023-02-04T13:15:21;102831.25;;;8.81;100.00
68994;BME280;56054;50.968;5.816;2023-02-04T13:18:31;102829.06;;;8.77;100.00
68994;BME280;56054;50.968;5.816;2023-02-04T13:21:38;102823.16;;;8.87;100.00
68994;BME280;56054;50.968;5.816;2023-02-04T13:24:45;102827.63;;;8.88;100.00
68994;BME280;56054;50.968;5.816;2023-02-04T13:28:21;102817.25;;;8.96;100.00
68994;BME280;56054;50.968;5.816;2023-02-04T13:31:31;102826.41;;;9.02;100.00
68994;BME280;56054;50.968;5.816;2023-02-04T13:34:38;102824.00;;;9.12;100.00
68994;BME280;56054;50.968;5.816;2023-02-04T13:37:51;102830.50;;;9.41;100.00
68994;BME280;56054;50.968;5.816;2023-02-04T13:40:58;102820.91;;;9.49;100.00
68994;BME280;56054;50.968;5.816;2023-02-04T13:44:05;102808.38;;;9.36;100.00
68994;BME280;56054;50.968;5.816;2023-02-04T13:47:19;102806.53;;;9.44;100.00
68994;BME280;56054;50.968;5.816;2023-02-04T13:50:35;102807.69;;;9.21;100.00
68994;BME280;56054;50.968;5.816;2023-02-04T13:53:47;102801.31;;;9.35;100.00
68994;BME280;56054;50.968;5.816;2023-02-04T13:57:22;102803.44;;;9.31;100.00
68994;BME280;56054;50.968;5.816;2023-02-04T14:00:38;102801.78;;;9.23;100.00
68994;BME280;56054;50.968;5.816;2023-02-04T14:03:46;102803.28;;;9.20;100.00
68994;BME280;56054;50.968;5.816;2023-02-04T14:06:56;102806.31;;;9.16;100.00
68994;BME280;56054;50.968;5.816;2023-02-04T14:10:06;102809.34;;;9.04;100.00
68994;BME280;56054;50.968;5.816;2023-02-04T14:13:22;102807.41;;;9.10;100.00
68994;BME280;56054;50.968;5.816;2023-02-04T14:16:50;102802.66;;;9.06;100.00
68994;BME280;56054;50.968;5.816;2023-02-04T14:24:23;102799.28;;;9.07;100.00
68994;BME280;56054;50.968;5.816;2023-02-04T14:28:08;102808.13;;;9.09;100.00
68994;BME280;56054;50.968;5.816;2023-02-04T14:31:31;102800.50;;;9.02;100.00
68994;BME280;56054;50.968;5.816;2023-02-04T14:34:42;102801.56;;;9.04;100.00
68994;BME280;56054;50.968;5.816;2023-02-04T14:37:57;102802.66;;;9.06;100.00
68994;BME280;56054;50.968;5.816;2023-02-04T14:41:13;102815.56;;;8.97;100.00
68994;BME280;56054;50.968;5.816;2023-02-04T14:44:31;102812.84;;;8.95;100.00
68994;BME280;56054;50.968;5.816;2023-02-04T14:47:46;102811.78;;;9.02;100.00
68994;BME280;56054;50.968;5.816;2023-02-04T14:51:06;102819.41;;;9.00;100.00
68994;BME280;56054;50.968;5.816;2023-02-04T14:54:13;102815.13;;;9.01;100.00
68994;BME280;56054;50.968;5.816;2023-02-04T14:57:32;102820.03;;;8.98;100.00
68994;BME280;56054;50.968;5.816;2023-02-04T15:00:40;102817.91;;;9.03;100.00
68994;BME280;56054;50.968;5.816;2023-02-04T15:03:47;102813.94;;;9.06;100.00
68994;BME280;56054;50.968;5.816;2023-02-04T15:06:54;102815.44;;;8.95;100.00
68994;BME280;56054;50.968;5.816;2023-02-04T15:10:07;102822.31;;;9.04;100.00
68994;BME280;56054;50.968;5.816;2023-02-04T15:17:34;102827.50;;;9.04;100.00
68994;BME280;56054;50.968;5.816;2023-02-04T15:21:12;102823.09;;;9.11;100.00
68994;BME280;56054;50.968;5.816;2023-02-04T15:24:21;102835.94;;;9.18;100.00
68994;BME280;56054;50.968;5.816;2023-02-04T15:27:28;102824.66;;;9.18;100.00
68994;BME280;56054;50.968;5.816;2023-02-04T15:30:36;102835.94;;;9.18;100.00
68994;BME280;56054;50.968;5.816;2023-02-04T15:34:06;102829.34;;;9.05;100.00
68994;BME280;56054;50.968;5.816;2023-02-04T15:37:39;102831.94;;;9.05;100.00
68994;BME280;56054;50.968;5.816;2023-02-04T15:41:12;102838.94;;;9.06;100.00
68994;BME280;56054;50.968;5.816;2023-02-04T15:44:19;102835.59;;;9.07;100.00
68994;BME280;56054;50.968;5.816;2023-02-04T15:47:26;102842.88;;;8.93;100.00
68994;BME280;56054;50.968;5.816;2023-02-04T15:50:59;102835.69;;;8.91;100.00
68994;BME280;56054;50.968;5.816;2023-02-04T15:54:12;102833.41;;;8.94;100.00
68994;BME280;56054;50.968;5.816;2023-02-04T15:57:21;102825.47;;;8.92;100.00
68994;BME280;56054;50.968;5.816;2023-02-04T16:00:28;102827.75;;;8.81;100.00
68994;BME280;56054;50.968;5.816;2023-02-04T16:03:35;102823.59;;;8.83;100.00
68994;BME280;56054;50.968;5.816;2023-02-04T16:06:51;102821.94;;;8.83;100.00
68994;BME280;56054;50.968;5.816;2023-02-04T16:10:07;102831.72;;;8.86;100.00
68994;BME280;56054;50.968;5.816;2023-02-04T16:13:22;102834.56;;;8.80;100.00
68994;BME280;56054;50.968;5.816;2023-02-04T16:16:30;102841.44;;;8.79;100.00
68994;BME280;56054;50.968;5.816;2023-02-04T16:19:50;102842.34;;;8.80;100.00
68994;BME280;56054;50.968;5.816;2023-02-04T16:22:57;102844.81;;;8.78;100.00
68994;BME280;56054;50.968;5.816;2023-02-04T16:26:04;102846.59;;;8.71;100.00
68994;BME280;56054;50.968;5.816;2023-02-04T16:29:37;102846.91;;;8.74;100.00
68994;BME280;56054;50.968;5.816;2023-02-04T16:32:46;102865.94;;;8.66;100.00
68994;BME280;56054;50.968;5.816;2023-02-04T16:36:03;102849.94;;;8.70;100.00
68994;BME280;56054;50.968;5.816;2023-02-04T16:39:26;102849.19;;;8.71;100.00
68994;BME280;56054;50.968;5.816;2023-02-04T16:42:36;102854.38;;;8.71;100.00
68994;BME280;56054;50.968;5.816;2023-02-04T16:45:54;102861.50;;;8.65;100.00
68994;BME280;56054;50.968;5.816;2023-02-04T16:49:27;102863.34;;;8.66;100.00
68994;BME280;56054;50.968;5.816;2023-02-04T16:56:35;102866.06;;;8.59;100.00
68994;BME280;56054;50.968;5.816;2023-02-04T16:59:47;102875.34;;;8.56;100.00
68994;BME280;56054;50.968;5.816;2023-02-04T17:02:54;102882.34;;;8.57;100.00
68994;BME280;56054;50.968;5.816;2023-02-04T17:06:06;102878.25;;;8.60;100.00
68994;BME280;56054;50.968;5.816;2023-02-04T17:09:18;102876.34;;;8.50;100.00
68994;BME280;56054;50.968;5.816;2023-02-04T17:12:50;102878.94;;;8.50;100.00
68994;BME280;56054;50.968;5.816;2023-02-04T17:15:57;102883.50;;;8.44;100.00
68994;BME280;56054;50.968;5.816;2023-02-04T17:19:04;102882.91;;;8.46;100.00
68994;BME280;56054;50.968;5.816;2023-02-04T17:22:11;102887.72;;;8.43;100.00
68994;BME280;56054;50.968;5.816;2023-02-04T17:25:18;102882.66;;;8.61;100.00
68994;BME280;56054;50.968;5.816;2023-02-04T17:28:26;102888.41;;;8.49;100.00
68994;BME280;56054;50.968;5.816;2023-02-04T17:31:34;102894.31;;;8.48;100.00
68994;BME280;56054;50.968;5.816;2023-02-04T17:34:46;102903.94;;;8.49;100.00
68994;BME280;56054;50.968;5.816;2023-02-04T17:37:56;102896.59;;;8.45;100.00
68994;BME280;56054;50.968;5.816;2023-02-04T17:41:07;102892.19;;;8.44;100.00
68994;BME280;56054;50.968;5.816;2023-02-04T17:44:14;102887.97;;;8.38;100.00
68994;BME280;56054;50.968;5.816;2023-02-04T17:47:21;102890.38;;;8.36;100.00
68994;BME280;56054;50.968;5.816;2023-02-04T17:50:32;102886.06;;;8.28;100.00
68994;BME280;56054;50.968;5.816;2023-02-04T17:53:39;102885.91;;;8.26;100.00
68994;BME280;56054;50.968;5.816;2023-02-04T17:56:46;102890.50;;;8.29;100.00
68994;BME280;56054;50.968;5.816;2023-02-04T17:59:57;102884.72;;;8.31;100.00
68994;BME280;56054;50.968;5.816;2023-02-04T18:03:18;102899.53;;;8.32;100.00
68994;BME280;56054;50.968;5.816;2023-02-04T18:06:25;102892.47;;;8.31;100.00
68994;BME280;56054;50.968;5.816;2023-02-04T18:09:37;102887.44;;;8.24;100.00
68994;BME280;56054;50.968;5.816;2023-02-04T18:12:44;102893.06;;;8.29;100.00
68994;BME280;56054;50.968;5.816;2023-02-04T18:16:22;102902.63;;;8.21;100.00
68994;BME280;56054;50.968;5.816;2023-02-04T18:19:37;102897.63;;;8.23;100.00
68994;BME280;56054;50.968;5.816;2023-02-04T18:22:49;102893.44;;;8.16;100.00
68994;BME280;56054;50.968;5.816;2023-02-04T18:26:06;102896.03;;;8.16;100.00
68994;BME280;56054;50.968;5.816;2023-02-04T18:29:33;102904.81;;;8.25;100.00
68994;BME280;56054;50.968;5.816;2023-02-04T18:32:40;102899.13;;;8.21;100.00
68994;BME280;56054;50.968;5.816;2023-02-04T18:35:51;102902.81;;;8.07;100.00
68994;BME280;56054;50.968;5.816;2023-02-04T18:39:19;102901.06;;;8.14;100.00
68994;BME280;56054;50.968;5.816;2023-02-04T18:43:21;102918.19;;;8.05;100.00
68994;BME280;56054;50.968;5.816;2023-02-04T18:46:35;102918.03;;;8.04;100.00
68994;BME280;56054;50.968;5.816;2023-02-04T18:49:42;102911.84;;;8.10;100.00
68994;BME280;56054;50.968;5.816;2023-02-04T18:52:49;102904.94;;;8.02;100.00
68994;BME280;56054;50.968;5.816;2023-02-04T18:56:03;102896.50;;;7.96;100.00
68994;BME280;56054;50.968;5.816;2023-02-04T18:59:18;102884.63;;;7.98;100.00
68994;BME280;56054;50.968;5.816;2023-02-04T19:02:54;102885.63;;;7.91;100.00
68994;BME280;56054;50.968;5.816;2023-02-04T19:06:31;102891.41;;;7.89;100.00
68994;BME280;56054;50.968;5.816;2023-02-04T19:09:38;102891.00;;;7.93;100.00
68994;BME280;56054;50.968;5.816;2023-02-04T19:12:53;102892.81;;;7.94;100.00
68994;BME280;56054;50.968;5.816;2023-02-04T19:16:23;102890.06;;;7.92;100.00
68994;BME280;56054;50.968;5.816;2023-02-04T19:20:23;102885.72;;;8.00;100.00
68994;BME280;56054;50.968;5.816;2023-02-04T19:24:14;102901.25;;;8.00;100.00
68994;BME280;56054;50.968;5.816;2023-02-04T19:27:34;102897.16;;;8.02;100.00
68994;BME280;56054;50.968;5.816;2023-02-04T19:31:16;102898.31;;;7.97;100.00
68994;BME280;56054;50.968;5.816;2023-02-04T19:34:41;102898.00;;;7.94;100.00
68994;BME280;56054;50.968;5.816;2023-02-04T19:38:00;102899.34;;;7.90;100.00
68994;BME280;56054;50.968;5.816;2023-02-04T19:41:51;102894.66;;;7.95;100.00
68994;BME280;56054;50.968;5.816;2023-02-04T19:48:43;102889.56;;;7.88;100.00
68994;BME280;56054;50.968;5.816;2023-02-04T19:51:57;102900.00;;;7.97;100.00
68994;BME280;56054;50.968;5.816;2023-02-04T19:58:41;102895.47;;;7.87;100.00
68994;BME280;56054;50.968;5.816;2023-02-04T20:05:31;102894.91;;;7.89;100.00
68994;BME280;56054;50.968;5.816;2023-02-04T20:08:42;102894.50;;;7.93;100.00
68994;BME280;56054;50.968;5.816;2023-02-04T20:11:56;102897.16;;;7.86;100.00
68994;BME280;56054;50.968;5.816;2023-02-04T20:15:18;102897.47;;;7.89;100.00
68994;BME280;56054;50.968;5.816;2023-02-04T20:18:26;102898.41;;;7.90;100.00
68994;BME280;56054;50.968;5.816;2023-02-04T20:21:37;102893.91;;;7.96;100.00
68994;BME280;56054;50.968;5.816;2023-02-04T20:27:54;102888.03;;;7.90;100.00
68994;BME280;56054;50.968;5.816;2023-02-04T20:31:19;102887.72;;;7.87;100.00
68994;BME280;56054;50.968;5.816;2023-02-04T20:34:36;102880.72;;;7.86;100.00